sensor_id;sensor_type;location;lat;lon;timestamp;temperature;humidity
7676;DHT22;3880;51.464;-2.566;2022-12-29T00:01:35;9.40;99.90
7676;DHT22;3880;51.464;-2.566;2022-12-29T00:04:05;9.50;99.90
7676;DHT22;3880;51.464;-2.566;2022-12-29T00:06:35;9.40;99.90
7676;DHT22;3880;51.464;-2.566;2022-12-29T00:09:02;9.30;99.90
7676;DHT22;3880;51.464;-2.566;2022-12-29T00:11:29;9.40;99.90
7676;DHT22;3880;51.464;-2.566;2022-12-29T00:13:56;9.40;99.90
7676;DHT22;3880;51.464;-2.566;2022-12-29T00:16:46;9.40;99.90
7676;DHT22;3880;51.464;-2.566;2022-12-29T00:19:14;9.50;99.90
7676;DHT22;3880;51.464;-2.566;2022-12-29T00:21:59;9.50;99.90
7676;DHT22;3880;51.464;-2.566;2022-12-29T00:24:44;9.50;99.90
7676;DHT22;3880;51.464;-2.566;2022-12-29T00:27:29;9.40;99.90
7676;DHT22;3880;51.464;-2.566;2022-12-29T00:30:17;9.30;99.90
7676;DHT22;3880;51.464;-2.566;2022-12-29T00:33:09;9.40;99.90
7676;DHT22;3880;51.464;-2.566;2022-12-29T00:35:58;9.40;99.90
7676;DHT22;3880;51.464;-2.566;2022-12-29T00:38:27;9.30;99.90
7676;DHT22;3880;51.464;-2.566;2022-12-29T00:41:12;9.30;99.90
7676;DHT22;3880;51.464;-2.566;2022-12-29T00:43:56;9.30;99.90
7676;DHT22;3880;51.464;-2.566;2022-12-29T00:46:32;9.30;99.90
7676;DHT22;3880;51.464;-2.566;2022-12-29T00:49:00;9.40;99.90
7676;DHT22;3880;51.464;-2.566;2022-12-29T00:51:46;9.60;99.90
7676;DHT22;3880;51.464;-2.566;2022-12-29T00:54:15;9.60;99.90
7676;DHT22;3880;51.464;-2.566;2022-12-29T00:56:42;9.70;99.90
7676;DHT22;3880;51.464;-2.566;2022-12-29T00:59:10;9.70;99.90
7676;DHT22;3880;51.464;-2.566;2022-12-29T01:01:38;9.70;99.90
7676;DHT22;3880;51.464;-2.566;2022-12-29T01:04:05;9.70;99.90
7676;DHT22;3880;51.464;-2.566;2022-12-29T01:06:37;9.60;99.90
7676;DHT22;3880;51.464;-2.566;2022-12-29T01:09:09;9.60;99.90
7676;DHT22;3880;51.464;-2.566;2022-12-29T01:11:54;9.50;99.90
7676;DHT22;3880;51.464;-2.566;2022-12-29T01:14:22;9.50;99.90
7676;DHT22;3880;51.464;-2.566;2022-12-29T01:16:49;9.50;99.90
7676;DHT22;3880;51.464;-2.566;2022-12-29T01:19:17;9.50;99.90
7676;DHT22;3880;51.464;-2.566;2022-12-29T01:21:45;9.50;99.90
7676;DHT22;3880;51.464;-2.566;2022-12-29T01:24:13;9.50;99.90
7676;DHT22;3880;51.464;-2.566;2022-12-29T01:26:41;9.60;99.90
7676;DHT22;3880;51.464;-2.566;2022-12-29T01:29:08;9.60;99.90
7676;DHT22;3880;51.464;-2.566;2022-12-29T01:31:35;9.60;99.90
7676;DHT22;3880;51.464;-2.566;2022-12-29T01:34:02;9.60;99.90
7676;DHT22;3880;51.464;-2.566;2022-12-29T01:36:30;9.60;99.90
7676;DHT22;3880;51.464;-2.566;2022-12-29T01:38:57;9.60;99.90
7676;DHT22;3880;51.464;-2.566;2022-12-29T01:41:26;9.60;99.90
7676;DHT22;3880;51.464;-2.566;2022-12-29T01:43:54;9.60;99.90
7676;DHT22;3880;51.464;-2.566;2022-12-29T01:46:25;9.60;99.90
7676;DHT22;3880;51.464;-2.566;2022-12-29T01:48:57;9.60;99.90
7676;DHT22;3880;51.464;-2.566;2022-12-29T01:51:26;9.60;99.90
7676;DHT22;3880;51.464;-2.566;2022-12-29T01:53:56;9.70;99.90
7676;DHT22;3880;51.464;-2.566;2022-12-29T01:56:26;9.80;99.90
7676;DHT22;3880;51.464;-2.566;2022-12-29T01:58:58;9.80;99.90
7676;DHT22;3880;51.464;-2.566;2022-12-29T02:01:26;9.90;99.90
7676;DHT22;3880;51.464;-2.566;2022-12-29T02:03:54;9.90;99.90
7676;DHT22;3880;51.464;-2.566;2022-12-29T02:06:22;9.90;99.90
7676;DHT22;3880;51.464;-2.566;2022-12-29T02:08:53;10.00;99.90
7676;DHT22;3880;51.464;-2.566;2022-12-29T02:11:22;9.90;99.90
7676;DHT22;3880;51.464;-2.566;2022-12-29T02:13:51;10.10;99.90
7676;DHT22;3880;51.464;-2.566;2022-12-29T02:16:30;10.10;99.90
7676;DHT22;3880;51.464;-2.566;2022-12-29T02:19:16;10.10;99.90
7676;DHT22;3880;51.464;-2.566;2022-12-29T02:22:14;10.10;99.90
7676;DHT22;3880;51.464;-2.566;2022-12-29T02:25:15;10.00;99.90
7676;DHT22;3880;51.464;-2.566;2022-12-29T02:27:57;10.10;99.90
7676;DHT22;3880;51.464;-2.566;2022-12-29T02:30:42;10.00;99.90
7676;DHT22;3880;51.464;-2.566;2022-12-29T02:33:25;10.00;99.90
7676;DHT22;3880;51.464;-2.566;2022-12-29T02:36:04;10.00;99.90
7676;DHT22;3880;51.464;-2.566;2022-12-29T02:38:44;9.90;99.90
7676;DHT22;3880;51.464;-2.566;2022-12-29T02:41:16;9.70;99.90
7676;DHT22;3880;51.464;-2.566;2022-12-29T02:43:50;9.50;99.90
7676;DHT22;3880;51.464;-2.566;2022-12-29T02:46:27;9.30;99.90
7676;DHT22;3880;51.464;-2.566;2022-12-29T02:49:06;9.20;99.90
7676;DHT22;3880;51.464;-2.566;2022-12-29T02:51:40;9.10;99.90
7676;DHT22;3880;51.464;-2.566;2022-12-29T02:54:09;9.10;99.90
7676;DHT22;3880;51.464;-2.566;2022-12-29T02:57:11;9.00;99.90
7676;DHT22;3880;51.464;-2.566;2022-12-29T02:59:39;8.90;99.90
7676;DHT22;3880;51.464;-2.566;2022-12-29T03:02:33;8.90;99.90
7676;DHT22;3880;51.464;-2.566;2022-12-29T03:05:17;9.00;99.90
7676;DHT22;3880;51.464;-2.566;2022-12-29T03:07:51;8.90;99.90
7676;DHT22;3880;51.464;-2.566;2022-12-29T03:10:30;8.90;99.90
7676;DHT22;3880;51.464;-2.566;2022-12-29T03:13:04;8.90;99.90
7676;DHT22;3880;51.464;-2.566;2022-12-29T03:15:55;8.90;99.90
7676;DHT22;3880;51.464;-2.566;2022-12-29T03:18:42;8.90;99.90
7676;DHT22;3880;51.464;-2.566;2022-12-29T03:21:15;8.80;99.90
7676;DHT22;3880;51.464;-2.566;2022-12-29T03:23:45;8.80;99.90
7676;DHT22;3880;51.464;-2.566;2022-12-29T03:26:17;8.80;99.90
7676;DHT22;3880;51.464;-2.566;2022-12-29T03:28:50;8.80;99.90
7676;DHT22;3880;51.464;-2.566;2022-12-29T03:31:18;8.70;99.90
7676;DHT22;3880;51.464;-2.566;2022-12-29T03:33:48;8.70;99.90
7676;DHT22;3880;51.464;-2.566;2022-12-29T03:36:20;8.60;99.90
7676;DHT22;3880;51.464;-2.566;2022-12-29T03:38:53;8.60;99.90
7676;DHT22;3880;51.464;-2.566;2022-12-29T03:41:27;8.60;99.90
7676;DHT22;3880;51.464;-2.566;2022-12-29T03:43:55;8.60;99.90
7676;DHT22;3880;51.464;-2.566;2022-12-29T03:46:22;8.60;99.90
7676;DHT22;3880;51.464;-2.566;2022-12-29T03:48:50;8.60;99.90
7676;DHT22;3880;51.464;-2.566;2022-12-29T03:51:17;8.60;99.90
7676;DHT22;3880;51.464;-2.566;2022-12-29T03:53:44;8.60;99.90
7676;DHT22;3880;51.464;-2.566;2022-12-29T03:56:11;8.60;99.90
7676;DHT22;3880;51.464;-2.566;2022-12-29T03:58:38;8.50;99.90
7676;DHT22;3880;51.464;-2.566;2022-12-29T04:01:05;8.50;99.90
7676;DHT22;3880;51.464;-2.566;2022-12-29T04:03:32;8.50;99.90
7676;DHT22;3880;51.464;-2.566;2022-12-29T04:06:02;8.50;99.90
7676;DHT22;3880;51.464;-2.566;2022-12-29T04:08:29;8.50;99.90
7676;DHT22;3880;51.464;-2.566;2022-12-29T04:10:56;8.50;99.90
7676;DHT22;3880;51.464;-2.566;2022-12-29T04:13:23;8.50;99.90
7676;DHT22;3880;51.464;-2.566;2022-12-29T04:15:50;8.50;99.90
7676;DHT22;3880;51.464;-2.566;2022-12-29T04:18:17;8.40;99.90
7676;DHT22;3880;51.464;-2.566;2022-12-29T04:20:44;8.40;99.90
7676;DHT22;3880;51.464;-2.566;2022-12-29T04:23:31;8.50;99.90
7676;DHT22;3880;51.464;-2.566;2022-12-29T04:25:58;8.40;99.90
7676;DHT22;3880;51.464;-2.566;2022-12-29T04:28:25;8.40;99.90
7676;DHT22;3880;51.464;-2.566;2022-12-29T04:30:53;8.40;99.90
7676;DHT22;3880;51.464;-2.566;2022-12-29T04:33:20;8.40;99.90
7676;DHT22;3880;51.464;-2.566;2022-12-29T04:35:48;8.50;99.90
7676;DHT22;3880;51.464;-2.566;2022-12-29T04:38:15;8.40;99.90
7676;DHT22;3880;51.464;-2.566;2022-12-29T04:40:44;8.40;99.90
7676;DHT22;3880;51.464;-2.566;2022-12-29T04:43:11;8.40;99.90
7676;DHT22;3880;51.464;-2.566;2022-12-29T04:45:39;8.40;99.90
7676;DHT22;3880;51.464;-2.566;2022-12-29T04:48:09;8.40;99.90
7676;DHT22;3880;51.464;-2.566;2022-12-29T04:50:39;8.40;99.90
7676;DHT22;3880;51.464;-2.566;2022-12-29T04:53:07;8.40;99.90
7676;DHT22;3880;51.464;-2.566;2022-12-29T04:55:34;8.40;99.90
7676;DHT22;3880;51.464;-2.566;2022-12-29T04:58:02;8.40;99.90
7676;DHT22;3880;51.464;-2.566;2022-12-29T05:00:30;8.50;99.90
7676;DHT22;3880;51.464;-2.566;2022-12-29T05:02:57;8.50;99.90
7676;DHT22;3880;51.464;-2.566;2022-12-29T05:05:24;8.50;99.90
7676;DHT22;3880;51.464;-2.566;2022-12-29T05:07:51;8.50;99.90
7676;DHT22;3880;51.464;-2.566;2022-12-29T05:10:19;8.40;99.90
7676;DHT22;3880;51.464;-2.566;2022-12-29T05:12:46;8.40;99.90
7676;DHT22;3880;51.464;-2.566;2022-12-29T05:15:14;8.30;99.90
7676;DHT22;3880;51.464;-2.566;2022-12-29T05:17:41;8.40;99.90
7676;DHT22;3880;51.464;-2.566;2022-12-29T05:20:09;8.40;99.90
7676;DHT22;3880;51.464;-2.566;2022-12-29T05:22:36;8.40;99.90
7676;DHT22;3880;51.464;-2.566;2022-12-29T05:25:04;8.30;99.90
7676;DHT22;3880;51.464;-2.566;2022-12-29T05:27:31;8.40;99.90
7676;DHT22;3880;51.464;-2.566;2022-12-29T05:29:59;8.40;99.90
7676;DHT22;3880;51.464;-2.566;2022-12-29T05:32:27;8.40;99.90
7676;DHT22;3880;51.464;-2.566;2022-12-29T05:34:54;8.40;99.90
7676;DHT22;3880;51.464;-2.566;2022-12-29T05:37:21;8.40;99.90
7676;DHT22;3880;51.464;-2.566;2022-12-29T05:39:48;8.40;99.90
7676;DHT22;3880;51.464;-2.566;2022-12-29T05:42:15;8.40;99.90
7676;DHT22;3880;51.464;-2.566;2022-12-29T05:44:42;8.30;99.90
7676;DHT22;3880;51.464;-2.566;2022-12-29T05:47:09;8.30;99.90
7676;DHT22;3880;51.464;-2.566;2022-12-29T05:49:38;8.30;99.90
7676;DHT22;3880;51.464;-2.566;2022-12-29T05:52:05;8.30;99.90
7676;DHT22;3880;51.464;-2.566;2022-12-29T05:54:32;8.30;99.90
7676;DHT22;3880;51.464;-2.566;2022-12-29T05:56:59;8.30;99.90
7676;DHT22;3880;51.464;-2.566;2022-12-29T05:59:26;8.20;99.90
7676;DHT22;3880;51.464;-2.566;2022-12-29T06:01:53;8.20;99.90
7676;DHT22;3880;51.464;-2.566;2022-12-29T06:04:20;8.20;99.90
7676;DHT22;3880;51.464;-2.566;2022-12-29T06:06:48;8.20;99.90
7676;DHT22;3880;51.464;-2.566;2022-12-29T06:09:15;8.20;99.90
7676;DHT22;3880;51.464;-2.566;2022-12-29T06:11:47;8.20;99.90
7676;DHT22;3880;51.464;-2.566;2022-12-29T06:14:14;8.30;99.90
7676;DHT22;3880;51.464;-2.566;2022-12-29T06:16:41;8.20;99.90
7676;DHT22;3880;51.464;-2.566;2022-12-29T06:19:11;8.30;99.90
7676;DHT22;3880;51.464;-2.566;2022-12-29T06:21:40;8.30;99.90
7676;DHT22;3880;51.464;-2.566;2022-12-29T06:24:08;8.40;99.90
7676;DHT22;3880;51.464;-2.566;2022-12-29T06:26:36;8.40;99.90
7676;DHT22;3880;51.464;-2.566;2022-12-29T06:29:03;8.40;99.90
7676;DHT22;3880;51.464;-2.566;2022-12-29T06:31:30;8.40;99.90
7676;DHT22;3880;51.464;-2.566;2022-12-29T06:33:57;8.40;99.90
7676;DHT22;3880;51.464;-2.566;2022-12-29T06:36:24;8.50;99.90
7676;DHT22;3880;51.464;-2.566;2022-12-29T06:38:52;8.60;99.90
7676;DHT22;3880;51.464;-2.566;2022-12-29T06:41:23;8.60;99.90
7676;DHT22;3880;51.464;-2.566;2022-12-29T06:43:50;8.70;99.90
7676;DHT22;3880;51.464;-2.566;2022-12-29T06:46:17;8.70;99.90
7676;DHT22;3880;51.464;-2.566;2022-12-29T06:48:44;8.70;99.90
7676;DHT22;3880;51.464;-2.566;2022-12-29T06:51:11;8.70;99.90
7676;DHT22;3880;51.464;-2.566;2022-12-29T06:53:38;8.70;99.90
7676;DHT22;3880;51.464;-2.566;2022-12-29T06:56:06;8.70;99.90
7676;DHT22;3880;51.464;-2.566;2022-12-29T06:58:34;8.70;99.90
7676;DHT22;3880;51.464;-2.566;2022-12-29T07:01:01;8.60;99.90
7676;DHT22;3880;51.464;-2.566;2022-12-29T07:03:28;8.50;99.90
7676;DHT22;3880;51.464;-2.566;2022-12-29T07:05:55;8.40;99.90
7676;DHT22;3880;51.464;-2.566;2022-12-29T07:08:23;8.40;99.90
7676;DHT22;3880;51.464;-2.566;2022-12-29T07:10:50;8.30;99.90
7676;DHT22;3880;51.464;-2.566;2022-12-29T07:13:17;8.30;99.90
7676;DHT22;3880;51.464;-2.566;2022-12-29T07:15:45;8.30;99.90
7676;DHT22;3880;51.464;-2.566;2022-12-29T07:18:12;8.20;99.90
7676;DHT22;3880;51.464;-2.566;2022-12-29T07:20:39;8.10;99.90
7676;DHT22;3880;51.464;-2.566;2022-12-29T07:23:06;8.00;99.90
7676;DHT22;3880;51.464;-2.566;2022-12-29T07:25:33;8.00;99.90
7676;DHT22;3880;51.464;-2.566;2022-12-29T07:28:01;7.90;99.90
7676;DHT22;3880;51.464;-2.566;2022-12-29T07:30:28;7.90;99.90
7676;DHT22;3880;51.464;-2.566;2022-12-29T07:32:57;7.80;99.90
7676;DHT22;3880;51.464;-2.566;2022-12-29T07:35:24;7.90;99.90
7676;DHT22;3880;51.464;-2.566;2022-12-29T07:37:51;7.80;99.90
7676;DHT22;3880;51.464;-2.566;2022-12-29T07:40:18;7.80;99.90
7676;DHT22;3880;51.464;-2.566;2022-12-29T07:42:45;7.80;99.90
7676;DHT22;3880;51.464;-2.566;2022-12-29T07:45:12;7.70;99.90
7676;DHT22;3880;51.464;-2.566;2022-12-29T07:47:39;7.70;99.90
7676;DHT22;3880;51.464;-2.566;2022-12-29T07:50:08;7.80;99.90
7676;DHT22;3880;51.464;-2.566;2022-12-29T07:52:35;7.80;99.90
7676;DHT22;3880;51.464;-2.566;2022-12-29T07:55:02;7.80;99.90
7676;DHT22;3880;51.464;-2.566;2022-12-29T07:57:29;7.70;99.90
7676;DHT22;3880;51.464;-2.566;2022-12-29T07:59:56;7.70;99.90
7676;DHT22;3880;51.464;-2.566;2022-12-29T08:02:24;7.80;99.90
7676;DHT22;3880;51.464;-2.566;2022-12-29T08:04:51;7.70;99.90
7676;DHT22;3880;51.464;-2.566;2022-12-29T08:07:20;7.70;99.90
7676;DHT22;3880;51.464;-2.566;2022-12-29T08:09:47;7.60;99.90
7676;DHT22;3880;51.464;-2.566;2022-12-29T08:12:16;7.60;99.90
7676;DHT22;3880;51.464;-2.566;2022-12-29T08:14:43;7.60;99.90
7676;DHT22;3880;51.464;-2.566;2022-12-29T08:17:13;7.60;99.90
7676;DHT22;3880;51.464;-2.566;2022-12-29T08:19:40;7.60;99.90
7676;DHT22;3880;51.464;-2.566;2022-12-29T08:22:08;7.60;99.90
7676;DHT22;3880;51.464;-2.566;2022-12-29T08:24:36;7.60;99.90
7676;DHT22;3880;51.464;-2.566;2022-12-29T08:27:03;7.60;99.90
7676;DHT22;3880;51.464;-2.566;2022-12-29T08:29:30;7.60;99.90
7676;DHT22;3880;51.464;-2.566;2022-12-29T08:31:57;7.50;99.90
7676;DHT22;3880;51.464;-2.566;2022-12-29T08:34:24;7.50;99.90
7676;DHT22;3880;51.464;-2.566;2022-12-29T08:36:51;7.50;99.90
7676;DHT22;3880;51.464;-2.566;2022-12-29T08:39:19;7.50;99.90
7676;DHT22;3880;51.464;-2.566;2022-12-29T08:41:48;7.40;99.90
7676;DHT22;3880;51.464;-2.566;2022-12-29T08:44:16;7.40;99.90
7676;DHT22;3880;51.464;-2.566;2022-12-29T08:46:43;7.40;99.90
7676;DHT22;3880;51.464;-2.566;2022-12-29T08:49:10;7.40;99.90
7676;DHT22;3880;51.464;-2.566;2022-12-29T08:51:37;7.50;99.90
7676;DHT22;3880;51.464;-2.566;2022-12-29T08:54:04;7.60;99.90
7676;DHT22;3880;51.464;-2.566;2022-12-29T08:56:31;7.50;99.90
7676;DHT22;3880;51.464;-2.566;2022-12-29T08:59:00;7.50;99.90
7676;DHT22;3880;51.464;-2.566;2022-12-29T09:01:27;7.40;99.90
7676;DHT22;3880;51.464;-2.566;2022-12-29T09:03:56;7.40;99.90
7676;DHT22;3880;51.464;-2.566;2022-12-29T09:06:23;7.40;99.90
7676;DHT22;3880;51.464;-2.566;2022-12-29T09:08:50;7.40;99.90
7676;DHT22;3880;51.464;-2.566;2022-12-29T09:11:19;7.40;99.90
7676;DHT22;3880;51.464;-2.566;2022-12-29T09:13:49;7.40;99.90
7676;DHT22;3880;51.464;-2.566;2022-12-29T09:16:22;7.40;99.90
7676;DHT22;3880;51.464;-2.566;2022-12-29T09:18:49;7.40;99.90
7676;DHT22;3880;51.464;-2.566;2022-12-29T09:21:17;7.40;99.90
7676;DHT22;3880;51.464;-2.566;2022-12-29T09:23:44;7.40;99.90
7676;DHT22;3880;51.464;-2.566;2022-12-29T09:26:11;7.30;99.90
7676;DHT22;3880;51.464;-2.566;2022-12-29T09:28:38;7.30;99.90
7676;DHT22;3880;51.464;-2.566;2022-12-29T09:31:05;7.30;99.90
7676;DHT22;3880;51.464;-2.566;2022-12-29T09:33:34;7.30;99.90
7676;DHT22;3880;51.464;-2.566;2022-12-29T09:36:02;7.30;99.90
7676;DHT22;3880;51.464;-2.566;2022-12-29T09:38:29;7.20;99.90
7676;DHT22;3880;51.464;-2.566;2022-12-29T09:41:01;7.30;99.90
7676;DHT22;3880;51.464;-2.566;2022-12-29T09:43:51;7.30;99.90
7676;DHT22;3880;51.464;-2.566;2022-12-29T09:46:24;7.40;99.90
7676;DHT22;3880;51.464;-2.566;2022-12-29T09:48:58;7.40;99.90
7676;DHT22;3880;51.464;-2.566;2022-12-29T09:51:31;7.30;99.90
7676;DHT22;3880;51.464;-2.566;2022-12-29T09:54:03;7.40;99.90
7676;DHT22;3880;51.464;-2.566;2022-12-29T09:56:30;7.40;99.90
7676;DHT22;3880;51.464;-2.566;2022-12-29T09:59:00;7.40;99.90
7676;DHT22;3880;51.464;-2.566;2022-12-29T10:01:32;7.40;99.90
7676;DHT22;3880;51.464;-2.566;2022-12-29T10:04:02;7.40;99.90
7676;DHT22;3880;51.464;-2.566;2022-12-29T10:06:36;7.40;99.90
7676;DHT22;3880;51.464;-2.566;2022-12-29T10:09:14;7.40;99.90
7676;DHT22;3880;51.464;-2.566;2022-12-29T10:11:57;7.50;99.90
7676;DHT22;3880;51.464;-2.566;2022-12-29T10:14:38;7.50;99.90
7676;DHT22;3880;51.464;-2.566;2022-12-29T10:17:19;7.40;99.90
7676;DHT22;3880;51.464;-2.566;2022-12-29T10:20:01;7.70;99.90
7676;DHT22;3880;51.464;-2.566;2022-12-29T10:22:38;8.10;99.90
7676;DHT22;3880;51.464;-2.566;2022-12-29T10:25:15;8.50;99.90
7676;DHT22;3880;51.464;-2.566;2022-12-29T10:27:43;8.90;99.90
7676;DHT22;3880;51.464;-2.566;2022-12-29T10:30:14;9.40;99.90
7676;DHT22;3880;51.464;-2.566;2022-12-29T10:32:45;9.30;99.90
7676;DHT22;3880;51.464;-2.566;2022-12-29T10:35:18;8.80;99.90
7676;DHT22;3880;51.464;-2.566;2022-12-29T10:37:51;8.50;99.90
7676;DHT22;3880;51.464;-2.566;2022-12-29T10:40:26;8.30;99.90
7676;DHT22;3880;51.464;-2.566;2022-12-29T10:42:56;8.30;99.90
7676;DHT22;3880;51.464;-2.566;2022-12-29T10:45:27;8.40;99.90
7676;DHT22;3880;51.464;-2.566;2022-12-29T10:47:59;8.70;99.90
7676;DHT22;3880;51.464;-2.566;2022-12-29T10:50:29;9.10;99.90
7676;DHT22;3880;51.464;-2.566;2022-12-29T10:52:58;9.30;99.90
7676;DHT22;3880;51.464;-2.566;2022-12-29T10:55:30;9.60;99.90
7676;DHT22;3880;51.464;-2.566;2022-12-29T10:58:02;9.60;99.90
7676;DHT22;3880;51.464;-2.566;2022-12-29T11:00:32;9.20;99.90
7676;DHT22;3880;51.464;-2.566;2022-12-29T11:03:27;8.80;99.90
7676;DHT22;3880;51.464;-2.566;2022-12-29T11:05:59;8.40;99.90
7676;DHT22;3880;51.464;-2.566;2022-12-29T11:08:33;8.30;99.90
7676;DHT22;3880;51.464;-2.566;2022-12-29T11:11:01;8.10;99.90
7676;DHT22;3880;51.464;-2.566;2022-12-29T11:13:31;8.00;99.90
7676;DHT22;3880;51.464;-2.566;2022-12-29T11:15:58;8.10;99.90
7676;DHT22;3880;51.464;-2.566;2022-12-29T11:18:31;8.10;99.90
7676;DHT22;3880;51.464;-2.566;2022-12-29T11:21:01;8.10;99.90
7676;DHT22;3880;51.464;-2.566;2022-12-29T11:23:32;8.10;99.90
7676;DHT22;3880;51.464;-2.566;2022-12-29T11:26:15;8.00;99.90
7676;DHT22;3880;51.464;-2.566;2022-12-29T11:28:43;8.00;99.90
7676;DHT22;3880;51.464;-2.566;2022-12-29T11:31:16;8.10;99.90
7676;DHT22;3880;51.464;-2.566;2022-12-29T11:33:43;8.40;99.90
7676;DHT22;3880;51.464;-2.566;2022-12-29T11:36:16;8.90;99.90
7676;DHT22;3880;51.464;-2.566;2022-12-29T11:38:47;9.40;99.90
7676;DHT22;3880;51.464;-2.566;2022-12-29T11:41:20;9.70;99.90
7676;DHT22;3880;51.464;-2.566;2022-12-29T11:43:52;10.00;99.90
7676;DHT22;3880;51.464;-2.566;2022-12-29T11:46:22;10.20;99.90
7676;DHT22;3880;51.464;-2.566;2022-12-29T11:48:50;9.90;99.90
7676;DHT22;3880;51.464;-2.566;2022-12-29T11:51:24;9.80;99.90
7676;DHT22;3880;51.464;-2.566;2022-12-29T11:53:56;9.60;99.90
7676;DHT22;3880;51.464;-2.566;2022-12-29T11:56:34;9.40;99.90
7676;DHT22;3880;51.464;-2.566;2022-12-29T12:02:38;9.10;99.90
7676;DHT22;3880;51.464;-2.566;2022-12-29T12:05:22;8.90;99.90
7676;DHT22;3880;51.464;-2.566;2022-12-29T12:07:56;8.80;99.90
7676;DHT22;3880;51.464;-2.566;2022-12-29T12:10:32;8.60;99.90
7676;DHT22;3880;51.464;-2.566;2022-12-29T12:13:11;8.60;99.90
7676;DHT22;3880;51.464;-2.566;2022-12-29T12:15:46;8.60;99.90
7676;DHT22;3880;51.464;-2.566;2022-12-29T12:18:21;8.70;99.90
7676;DHT22;3880;51.464;-2.566;2022-12-29T12:20:57;8.60;99.90
7676;DHT22;3880;51.464;-2.566;2022-12-29T12:23:36;8.60;99.90
7676;DHT22;3880;51.464;-2.566;2022-12-29T12:26:11;8.50;99.90
7676;DHT22;3880;51.464;-2.566;2022-12-29T12:28:46;8.40;99.90
7676;DHT22;3880;51.464;-2.566;2022-12-29T12:31:21;8.40;99.90
7676;DHT22;3880;51.464;-2.566;2022-12-29T12:33:54;8.40;99.90
7676;DHT22;3880;51.464;-2.566;2022-12-29T12:36:40;8.50;99.90
7676;DHT22;3880;51.464;-2.566;2022-12-29T12:39:21;8.50;99.90
7676;DHT22;3880;51.464;-2.566;2022-12-29T12:41:54;8.50;99.90
7676;DHT22;3880;51.464;-2.566;2022-12-29T12:44:31;8.50;99.90
7676;DHT22;3880;51.464;-2.566;2022-12-29T12:47:29;8.60;99.90
7676;DHT22;3880;51.464;-2.566;2022-12-29T12:50:19;8.70;99.90
7676;DHT22;3880;51.464;-2.566;2022-12-29T12:53:11;8.80;99.90
7676;DHT22;3880;51.464;-2.566;2022-12-29T12:56:03;8.80;99.90
7676;DHT22;3880;51.464;-2.566;2022-12-29T12:58:39;8.90;99.90
7676;DHT22;3880;51.464;-2.566;2022-12-29T13:01:23;8.90;99.90
7676;DHT22;3880;51.464;-2.566;2022-12-29T13:04:03;8.80;99.90
7676;DHT22;3880;51.464;-2.566;2022-12-29T13:06:41;8.90;99.90
7676;DHT22;3880;51.464;-2.566;2022-12-29T13:09:41;8.80;99.90
7676;DHT22;3880;51.464;-2.566;2022-12-29T13:12:21;8.80;99.90
7676;DHT22;3880;51.464;-2.566;2022-12-29T13:14:59;8.70;99.90
7676;DHT22;3880;51.464;-2.566;2022-12-29T13:17:34;8.60;99.90
7676;DHT22;3880;51.464;-2.566;2022-12-29T13:20:16;8.50;99.90
7676;DHT22;3880;51.464;-2.566;2022-12-29T13:22:52;8.40;99.90
7676;DHT22;3880;51.464;-2.566;2022-12-29T13:25:34;8.30;99.90
7676;DHT22;3880;51.464;-2.566;2022-12-29T13:28:09;8.30;99.90
7676;DHT22;3880;51.464;-2.566;2022-12-29T13:30:44;8.30;99.90
7676;DHT22;3880;51.464;-2.566;2022-12-29T13:33:21;8.30;99.90
7676;DHT22;3880;51.464;-2.566;2022-12-29T13:35:58;8.40;99.90
7676;DHT22;3880;51.464;-2.566;2022-12-29T13:38:31;8.40;99.90
7676;DHT22;3880;51.464;-2.566;2022-12-29T13:41:03;8.40;99.90
7676;DHT22;3880;51.464;-2.566;2022-12-29T13:43:35;8.30;99.90
7676;DHT22;3880;51.464;-2.566;2022-12-29T13:46:07;8.30;99.90
7676;DHT22;3880;51.464;-2.566;2022-12-29T13:48:39;8.50;99.90
7676;DHT22;3880;51.464;-2.566;2022-12-29T13:51:08;8.60;99.90
7676;DHT22;3880;51.464;-2.566;2022-12-29T13:53:47;8.60;99.90
7676;DHT22;3880;51.464;-2.566;2022-12-29T13:56:21;8.50;99.90
7676;DHT22;3880;51.464;-2.566;2022-12-29T13:58:57;8.30;99.90
7676;DHT22;3880;51.464;-2.566;2022-12-29T14:01:30;8.10;99.90
7676;DHT22;3880;51.464;-2.566;2022-12-29T14:03:59;8.00;99.90
7676;DHT22;3880;51.464;-2.566;2022-12-29T14:06:29;7.80;99.90
7676;DHT22;3880;51.464;-2.566;2022-12-29T14:08:57;7.70;99.90
7676;DHT22;3880;51.464;-2.566;2022-12-29T14:11:30;7.60;99.90
7676;DHT22;3880;51.464;-2.566;2022-12-29T14:14:10;7.40;99.90
7676;DHT22;3880;51.464;-2.566;2022-12-29T14:16:38;7.10;99.90
7676;DHT22;3880;51.464;-2.566;2022-12-29T14:19:12;7.10;99.90
7676;DHT22;3880;51.464;-2.566;2022-12-29T14:21:44;7.10;99.90
7676;DHT22;3880;51.464;-2.566;2022-12-29T14:24:43;7.10;99.90
7676;DHT22;3880;51.464;-2.566;2022-12-29T14:27:51;7.10;99.90
7676;DHT22;3880;51.464;-2.566;2022-12-29T14:30:50;7.10;99.90
7676;DHT22;3880;51.464;-2.566;2022-12-29T14:33:17;7.20;99.90
7676;DHT22;3880;51.464;-2.566;2022-12-29T14:35:47;7.40;99.90
7676;DHT22;3880;51.464;-2.566;2022-12-29T14:38:23;7.50;99.90
7676;DHT22;3880;51.464;-2.566;2022-12-29T14:40:51;7.60;99.90
7676;DHT22;3880;51.464;-2.566;2022-12-29T14:43:26;7.70;99.90
7676;DHT22;3880;51.464;-2.566;2022-12-29T14:45:58;7.70;99.90
7676;DHT22;3880;51.464;-2.566;2022-12-29T14:48:36;7.70;99.90
7676;DHT22;3880;51.464;-2.566;2022-12-29T14:51:18;7.80;99.90
7676;DHT22;3880;51.464;-2.566;2022-12-29T14:53:48;7.70;99.90
7676;DHT22;3880;51.464;-2.566;2022-12-29T14:56:17;7.80;99.90
7676;DHT22;3880;51.464;-2.566;2022-12-29T14:58:48;7.90;99.90
7676;DHT22;3880;51.464;-2.566;2022-12-29T15:01:31;8.00;99.90
7676;DHT22;3880;51.464;-2.566;2022-12-29T15:04:06;8.00;99.90
7676;DHT22;3880;51.464;-2.566;2022-12-29T15:06:40;8.00;99.90
7676;DHT22;3880;51.464;-2.566;2022-12-29T15:09:12;8.00;99.90
7676;DHT22;3880;51.464;-2.566;2022-12-29T15:11:50;7.90;99.90
7676;DHT22;3880;51.464;-2.566;2022-12-29T15:14:30;7.80;99.90
7676;DHT22;3880;51.464;-2.566;2022-12-29T15:17:01;7.90;99.90
7676;DHT22;3880;51.464;-2.566;2022-12-29T15:19:35;7.90;99.90
7676;DHT22;3880;51.464;-2.566;2022-12-29T15:22:02;7.90;99.90
7676;DHT22;3880;51.464;-2.566;2022-12-29T15:24:30;7.90;99.90
7676;DHT22;3880;51.464;-2.566;2022-12-29T15:26:57;7.90;99.90
7676;DHT22;3880;51.464;-2.566;2022-12-29T15:29:33;7.90;99.90
7676;DHT22;3880;51.464;-2.566;2022-12-29T15:32:20;8.00;99.90
7676;DHT22;3880;51.464;-2.566;2022-12-29T15:34:50;8.10;99.90
7676;DHT22;3880;51.464;-2.566;2022-12-29T15:37:22;8.20;99.90
7676;DHT22;3880;51.464;-2.566;2022-12-29T15:39:50;8.20;99.90
7676;DHT22;3880;51.464;-2.566;2022-12-29T15:42:41;8.20;99.90
7676;DHT22;3880;51.464;-2.566;2022-12-29T15:45:12;8.20;99.90
7676;DHT22;3880;51.464;-2.566;2022-12-29T15:47:43;8.20;99.90
7676;DHT22;3880;51.464;-2.566;2022-12-29T15:50:19;8.20;99.90
7676;DHT22;3880;51.464;-2.566;2022-12-29T15:52:48;8.10;99.90
7676;DHT22;3880;51.464;-2.566;2022-12-29T15:55:21;7.90;99.90
7676;DHT22;3880;51.464;-2.566;2022-12-29T15:57:58;7.70;99.90
7676;DHT22;3880;51.464;-2.566;2022-12-29T16:00:27;7.60;99.90
7676;DHT22;3880;51.464;-2.566;2022-12-29T16:02:58;7.50;99.90
7676;DHT22;3880;51.464;-2.566;2022-12-29T16:05:32;7.60;99.90
7676;DHT22;3880;51.464;-2.566;2022-12-29T16:07:59;7.70;99.90
7676;DHT22;3880;51.464;-2.566;2022-12-29T16:10:31;7.80;99.90
7676;DHT22;3880;51.464;-2.566;2022-12-29T16:13:15;7.80;99.90
7676;DHT22;3880;51.464;-2.566;2022-12-29T16:15:45;7.80;99.90
7676;DHT22;3880;51.464;-2.566;2022-12-29T16:18:22;7.90;99.90
7676;DHT22;3880;51.464;-2.566;2022-12-29T16:20:50;7.80;99.90
7676;DHT22;3880;51.464;-2.566;2022-12-29T16:23:21;7.70;99.90
7676;DHT22;3880;51.464;-2.566;2022-12-29T16:25:49;7.70;99.90
7676;DHT22;3880;51.464;-2.566;2022-12-29T16:28:19;7.60;99.90
7676;DHT22;3880;51.464;-2.566;2022-12-29T16:30:46;7.60;99.90
7676;DHT22;3880;51.464;-2.566;2022-12-29T16:33:36;7.60;99.90
7676;DHT22;3880;51.464;-2.566;2022-12-29T16:39:28;7.50;99.90
7676;DHT22;3880;51.464;-2.566;2022-12-29T16:41:57;7.60;99.90